Time;durP1;ratioP1;P1;durP2;ratioP2;P2;SDS_P1;SDS_P2;PMS_P1;PMS_P2;Temp;Humidity;BMP_temperature;BMP_pressure;BME280_temperature;BME280_humidity;BME280_pressure;Samples;Min_cycle;Max_cycle;Signal;HPM_P1;HPM_P2
2023/08/03 00:01:43;;;;;;;5.40;3.50;;;;;;;;;;5056484;28;20104;-74
2023/08/03 00:04:09;;;;;;;6.47;3.70;;;;;;;;;;5063373;28;20194;-75
2023/08/03 00:06:35;;;;;;;22.85;3.67;;;;;;;;;;5053023;28;20040;-74
2023/08/03 00:09:01;;;;;;;8.02;3.33;;;;;;;;;;5056405;28;20111;-74
2023/08/03 00:11:27;;;;;;;4.68;3.55;;;;;;;;;;5066228;28;20036;-74
2023/08/03 00:13:53;;;;;;;6.63;3.28;;;;;;;;;;5058264;28;20103;-75
2023/08/03 00:16:19;;;;;;;6.97;3.65;;;;;;;;;;5058764;28;20046;-75
2023/08/03 00:18:45;;;;;;;5.70;4.35;;;;;;;;;;5053340;28;20036;-75
2023/08/03 00:21:11;;;;;;;10.27;3.05;;;;;;;;;;5061602;28;20028;-73
2023/08/03 00:23:37;;;;;;;6.38;3.78;;;;;;;;;;5056752;28;20055;-73
2023/08/03 00:26:03;;;;;;;6.57;3.40;;;;;;;;;;5063940;28;20024;-74
2023/08/03 00:28:29;;;;;;;5.32;2.88;;;;;;;;;;5061280;28;20421;-74
2023/08/03 00:30:56;;;;;;;6.45;3.25;;;;;;;;;;5070330;28;20056;-74
2023/08/03 00:33:22;;;;;;;5.68;3.63;;;;;;;;;;5063446;28;20391;-75
2023/08/03 00:35:48;;;;;;;8.35;3.40;;;;;;;;;;5056739;28;20464;-74
2023/08/03 00:38:14;;;;;;;5.32;3.35;;;;;;;;;;5058529;28;20384;-75
2023/08/03 00:40:41;;;;;;;8.60;3.63;;;;;;;;;;5066375;28;20025;-74
2023/08/03 00:43:07;;;;;;;5.18;3.30;;;;;;;;;;5058569;28;20032;-74
2023/08/03 00:45:33;;;;;;;7.85;3.38;;;;;;;;;;5050766;28;20037;-73
2023/08/03 00:47:59;;;;;;;8.88;3.67;;;;;;;;;;5058297;28;20538;-74
2023/08/03 00:50:26;;;;;;;13.15;3.80;;;;;;;;;;5063192;28;20044;-74
2023/08/03 00:52:52;;;;;;;8.38;3.20;;;;;;;;;;5054973;28;20032;-76
2023/08/03 00:55:18;;;;;;;7.95;3.67;;;;;;;;;;5062114;28;20132;-75
2023/08/03 00:57:44;;;;;;;4.93;3.63;;;;;;;;;;5052362;28;20531;-74
2023/08/03 01:00:11;;;;;;;7.07;3.40;;;;;;;;;;5048850;28;20416;-74
2023/08/03 01:02:37;;;;;;;6.05;3.42;;;;;;;;;;5056618;28;20369;-75
2023/08/03 01:05:03;;;;;;;7.32;3.83;;;;;;;;;;5054828;28;20029;-75
2023/08/03 01:07:29;;;;;;;6.10;3.25;;;;;;;;;;5058759;28;20047;-75
2023/08/03 01:09:55;;;;;;;8.38;4.38;;;;;;;;;;5057830;28;20476;-74
2023/08/03 01:12:21;;;;;;;5.80;3.50;;;;;;;;;;5057152;28;20051;-74
2023/08/03 01:14:48;;;;;;;10.30;4.13;;;;;;;;;;5072646;28;20028;-75
2023/08/03 01:17:14;;;;;;;7.53;3.22;;;;;;;;;;5063161;28;20035;-74
2023/08/03 01:19:40;;;;;;;8.43;3.40;;;;;;;;;;5058310;28;20448;-74
2023/08/03 01:22:08;;;;;;;6.90;3.08;;;;;;;;;;5070330;28;20549;-74
2023/08/03 01:24:34;;;;;;;10.02;3.20;;;;;;;;;;5057658;28;20123;-75
2023/08/03 01:27:02;;;;;;;9.98;3.92;;;;;;;;;;5055561;28;20024;-74
2023/08/03 01:29:28;;;;;;;8.98;3.70;;;;;;;;;;5063943;28;20036;-73
2023/08/03 01:31:56;;;;;;;8.45;3.72;;;;;;;;;;5062452;28;20099;-74
2023/08/03 01:34:25;;;;;;;6.22;3.30;;;;;;;;;;5075042;28;20037;-74
2023/08/03 01:36:52;;;;;;;10.35;3.45;;;;;;;;;;5060261;28;20040;-74
2023/08/03 01:39:20;;;;;;;10.27;6.18;;;;;;;;;;5066129;28;20035;-75
2023/08/03 01:41:47;;;;;;;8.40;3.63;;;;;;;;;;5060969;28;20055;-74
2023/08/03 01:44:20;;;;;;;5.60;3.72;;;;;;;;;;5063656;28;20028;-75
2023/08/03 01:46:46;;;;;;;8.35;3.83;;;;;;;;;;5057255;28;20437;-75
2023/08/03 01:49:12;;;;;;;11.10;3.60;;;;;;;;;;5063324;28;20104;-73
2023/08/03 01:51:40;;;;;;;9.25;4.28;;;;;;;;;;5055893;28;20033;-74
2023/08/03 01:54:06;;;;;;;11.35;4.60;;;;;;;;;;5055016;28;20119;-75
2023/08/03 01:56:32;;;;;;;10.07;3.78;;;;;;;;;;5066577;28;20051;-74
2023/08/03 01:58:58;;;;;;;10.15;4.07;;;;;;;;;;5066008;28;20969;-74
2023/08/03 02:01:24;;;;;;;6.47;3.65;;;;;;;;;;5065539;28;20033;-75
2023/08/03 02:03:50;;;;;;;10.43;4.20;;;;;;;;;;5066025;28;20044;-74
2023/08/03 02:06:16;;;;;;;8.18;3.58;;;;;;;;;;5065362;28;20036;-75
2023/08/03 02:08:42;;;;;;;10.40;3.40;;;;;;;;;;5056435;28;20029;-74
2023/08/03 02:11:08;;;;;;;11.52;3.50;;;;;;;;;;5058502;28;20024;-75
2023/08/03 02:13:35;;;;;;;9.80;3.90;;;;;;;;;;5064135;28;20295;-74
2023/08/03 02:16:08;;;;;;;7.22;3.35;;;;;;;;;;5062180;28;20029;-74
2023/08/03 02:18:35;;;;;;;10.45;4.00;;;;;;;;;;5061959;28;20021;-74
2023/08/03 02:21:01;;;;;;;7.30;3.90;;;;;;;;;;5063428;28;20081;-74
2023/08/03 02:23:27;;;;;;;9.27;3.95;;;;;;;;;;5059607;28;20040;-75
2023/08/03 02:25:53;;;;;;;12.90;3.63;;;;;;;;;;5062302;28;20028;-75
2023/08/03 02:28:19;;;;;;;9.68;4.53;;;;;;;;;;5055054;28;20035;-75
2023/08/03 02:30:45;;;;;;;5.80;3.42;;;;;;;;;;5068681;28;20530;-74
2023/08/03 02:33:11;;;;;;;10.57;3.60;;;;;;;;;;5062402;28;20519;-74
2023/08/03 02:35:39;;;;;;;8.20;3.75;;;;;;;;;;5051181;28;20065;-75
2023/08/03 02:38:05;;;;;;;8.70;3.83;;;;;;;;;;5064826;28;20245;-75
2023/08/03 02:40:31;;;;;;;7.80;4.32;;;;;;;;;;5064582;28;20078;-75
2023/08/03 02:42:58;;;;;;;6.90;3.45;;;;;;;;;;5061720;28;20025;-75
2023/08/03 02:45:24;;;;;;;8.82;4.10;;;;;;;;;;5061899;28;20507;-73
2023/08/03 02:47:50;;;;;;;6.22;3.42;;;;;;;;;;5060943;28;20032;-74
2023/08/03 02:50:16;;;;;;;4.50;3.20;;;;;;;;;;5077884;28;20033;-75
2023/08/03 02:52:42;;;;;;;5.28;3.33;;;;;;;;;;5059849;28;20032;-75
2023/08/03 02:55:08;;;;;;;7.88;3.40;;;;;;;;;;5058234;28;20033;-75
2023/08/03 02:57:34;;;;;;;5.70;3.63;;;;;;;;;;5070563;28;20021;-74
2023/08/03 03:00:00;;;;;;;9.32;4.22;;;;;;;;;;5056388;28;20115;-75
2023/08/03 03:02:26;;;;;;;10.65;4.03;;;;;;;;;;5054848;28;20033;-74
2023/08/03 03:04:53;;;;;;;14.45;4.07;;;;;;;;;;5058906;28;20055;-74
2023/08/03 03:07:19;;;;;;;16.05;3.85;;;;;;;;;;5056008;28;20096;-74
2023/08/03 03:09:45;;;;;;;4.05;3.28;;;;;;;;;;5055536;28;20024;-74
2023/08/03 03:12:11;;;;;;;7.25;4.00;;;;;;;;;;5060671;28;20043;-74
2023/08/03 03:14:37;;;;;;;5.15;3.72;;;;;;;;;;5058814;28;20033;-74
2023/08/03 03:17:03;;;;;;;5.20;3.17;;;;;;;;;;5062427;28;20040;-75
2023/08/03 03:19:29;;;;;;;6.50;3.65;;;;;;;;;;5066303;28;20111;-74
2023/08/03 03:21:56;;;;;;;11.10;3.72;;;;;;;;;;5065320;28;20028;-74
2023/08/03 03:24:22;;;;;;;14.40;4.50;;;;;;;;;;5056167;28;20094;-75
2023/08/03 03:26:48;;;;;;;7.72;3.60;;;;;;;;;;5053358;28;20029;-74
2023/08/03 03:29:14;;;;;;;9.48;3.75;;;;;;;;;;5055936;28;20029;-75
2023/08/03 03:31:40;;;;;;;11.60;3.70;;;;;;;;;;5071708;28;20017;-75
2023/08/03 03:34:06;;;;;;;7.82;3.78;;;;;;;;;;5061758;28;20092;-75
2023/08/03 03:36:33;;;;;;;6.05;3.50;;;;;;;;;;5059900;28;20028;-75
2023/08/03 03:38:59;;;;;;;6.63;3.85;;;;;;;;;;5074966;28;20104;-75
2023/08/03 03:41:25;;;;;;;6.65;3.47;;;;;;;;;;5055761;28;20029;-74
2023/08/03 03:43:51;;;;;;;9.68;4.45;;;;;;;;;;5060830;28;20050;-74
2023/08/03 03:46:17;;;;;;;6.80;3.63;;;;;;;;;;5067917;28;20146;-75
2023/08/03 03:48:43;;;;;;;7.72;4.15;;;;;;;;;;5059649;28;20028;-75
2023/08/03 03:51:09;;;;;;;5.07;3.60;;;;;;;;;;5055367;28;20047;-75
2023/08/03 03:53:35;;;;;;;5.85;3.53;;;;;;;;;;5052461;28;20025;-75
2023/08/03 03:56:03;;;;;;;6.15;3.40;;;;;;;;;;5056077;28;20025;-75
2023/08/03 03:58:29;;;;;;;9.55;3.25;;;;;;;;;;5054538;28;20036;-74
2023/08/03 04:00:55;;;;;;;7.05;3.80;;;;;;;;;;5063028;28;20043;-75
2023/08/03 04:03:23;;;;;;;5.30;3.20;;;;;;;;;;5059485;28;20032;-75
2023/08/03 04:05:50;;;;;;;9.13;3.25;;;;;;;;;;5051012;28;20021;-74
2023/08/03 04:08:16;;;;;;;7.07;3.58;;;;;;;;;;5059064;28;20032;-74
2023/08/03 04:10:42;;;;;;;7.85;3.80;;;;;;;;;;5051387;28;20025;-75
2023/08/03 04:13:08;;;;;;;10.25;3.47;;;;;;;;;;5075445;28;20025;-75
2023/08/03 04:15:34;;;;;;;5.25;3.25;;;;;;;;;;5054951;28;20473;-74
2023/08/03 04:18:00;;;;;;;8.10;4.05;;;;;;;;;;5060479;28;20024;-75
2023/08/03 04:20:26;;;;;;;7.18;3.33;;;;;;;;;;5055526;28;20041;-75
2023/08/03 04:22:52;;;;;;;6.10;3.92;;;;;;;;;;5059759;28;20843;-74
2023/08/03 04:25:19;;;;;;;6.68;4.00;;;;;;;;;;5063456;28;20537;-75
2023/08/03 04:27:45;;;;;;;8.15;3.80;;;;;;;;;;5058809;28;20035;-74
2023/08/03 04:30:13;;;;;;;7.65;3.92;;;;;;;;;;5059579;28;20850;-75
2023/08/03 04:32:39;;;;;;;4.45;3.90;;;;;;;;;;5073135;28;20443;-75
2023/08/03 04:35:05;;;;;;;7.68;3.20;;;;;;;;;;5060073;28;20269;-74
2023/08/03 04:37:31;;;;;;;9.68;4.65;;;;;;;;;;5063957;28;20070;-73
2023/08/03 04:39:58;;;;;;;6.60;3.70;;;;;;;;;;5064431;28;20074;-75
2023/08/03 04:42:24;;;;;;;8.52;3.63;;;;;;;;;;5052996;28;20056;-74
2023/08/03 04:44:52;;;;;;;8.95;3.92;;;;;;;;;;5069348;28;20509;-74
2023/08/03 04:47:19;;;;;;;8.25;3.97;;;;;;;;;;5057442;28;20111;-74
2023/08/03 04:49:45;;;;;;;5.78;3.30;;;;;;;;;;5060280;28;20039;-74
2023/08/03 04:52:11;;;;;;;5.65;3.00;;;;;;;;;;5053998;28;20349;-74
2023/08/03 04:54:37;;;;;;;6.47;3.53;;;;;;;;;;5062930;28;20045;-74
2023/08/03 04:57:04;;;;;;;7.10;4.05;;;;;;;;;;5073076;28;20373;-74
2023/08/03 04:59:30;;;;;;;10.23;3.60;;;;;;;;;;5053349;28;20104;-74
2023/08/03 05:01:56;;;;;;;11.07;3.60;;;;;;;;;;5061644;28;20044;-75
2023/08/03 05:04:22;;;;;;;8.77;3.95;;;;;;;;;;5063347;28;20082;-74
2023/08/03 05:06:48;;;;;;;7.25;4.18;;;;;;;;;;5064781;28;20036;-74
2023/08/03 05:09:14;;;;;;;6.55;3.58;;;;;;;;;;5057367;28;20036;-74
2023/08/03 05:11:40;;;;;;;4.57;3.45;;;;;;;;;;5058534;28;20032;-75
2023/08/03 05:14:06;;;;;;;7.85;3.58;;;;;;;;;;5056553;28;20373;-74
2023/08/03 05:16:32;;;;;;;8.45;3.78;;;;;;;;;;5063315;28;20048;-75
2023/08/03 05:18:58;;;;;;;13.40;4.40;;;;;;;;;;5054727;28;20033;-74
2023/08/03 05:21:24;;;;;;;6.25;3.10;;;;;;;;;;5062823;28;20056;-75
2023/08/03 05:23:51;;;;;;;8.45;3.35;;;;;;;;;;5065867;28;20028;-75
2023/08/03 05:26:17;;;;;;;10.02;4.60;;;;;;;;;;5067579;28;20052;-74
2023/08/03 05:28:43;;;;;;;4.07;3.53;;;;;;;;;;5055039;28;20102;-74
2023/08/03 05:31:09;;;;;;;6.30;3.22;;;;;;;;;;5057633;28;20556;-75
2023/08/03 05:33:35;;;;;;;6.15;3.45;;;;;;;;;;5062655;28;20037;-75
2023/08/03 05:36:02;;;;;;;7.65;3.38;;;;;;;;;;5057783;28;20078;-74
2023/08/03 05:38:28;;;;;;;6.90;3.38;;;;;;;;;;5061806;28;20543;-75
2023/08/03 05:40:54;;;;;;;6.80;3.28;;;;;;;;;;5069851;28;20024;-74
2023/08/03 05:43:23;;;;;;;6.72;3.78;;;;;;;;;;5060618;28;20059;-75
2023/08/03 05:45:50;;;;;;;8.88;3.65;;;;;;;;;;5068190;28;20035;-75
2023/08/03 05:48:17;;;;;;;5.20;3.10;;;;;;;;;;5063252;28;20032;-75
2023/08/03 05:50:47;;;;;;;11.27;3.50;;;;;;;;;;5060559;28;20068;-75
2023/08/03 05:53:13;;;;;;;5.63;3.17;;;;;;;;;;5057340;28;20040;-75
2023/08/03 05:55:40;;;;;;;5.60;3.78;;;;;;;;;;5059313;28;20025;-75
2023/08/03 05:58:09;;;;;;;4.43;3.20;;;;;;;;;;5061194;28;20033;-76
2023/08/03 06:00:35;;;;;;;8.57;3.20;;;;;;;;;;5060211;28;20085;-75
2023/08/03 06:03:01;;;;;;;6.85;3.58;;;;;;;;;;5056178;28;20032;-75
2023/08/03 06:05:34;;;;;;;6.05;2.80;;;;;;;;;;5059030;28;20107;-75
2023/08/03 06:08:00;;;;;;;5.97;3.97;;;;;;;;;;5057830;28;20025;-75
2023/08/03 06:10:27;;;;;;;5.18;2.90;;;;;;;;;;5058203;28;20515;-75
2023/08/03 06:12:53;;;;;;;3.83;3.35;;;;;;;;;;5061576;28;20101;-75
2023/08/03 06:15:20;;;;;;;5.40;2.90;;;;;;;;;;5047246;28;20033;-76
2023/08/03 06:17:46;;;;;;;5.30;2.83;;;;;;;;;;5060644;28;20043;-75
2023/08/03 06:20:14;;;;;;;5.05;3.10;;;;;;;;;;5063462;28;20024;-75
2023/08/03 06:22:40;;;;;;;4.68;2.60;;;;;;;;;;5061463;28;20033;-75
2023/08/03 06:25:09;;;;;;;5.55;2.63;;;;;;;;;;5065461;28;20369;-75
2023/08/03 06:27:36;;;;;;;5.55;2.90;;;;;;;;;;5058463;28;21094;-76
2023/08/03 06:30:04;;;;;;;5.18;3.10;;;;;;;;;;5059306;28;20028;-71
2023/08/03 06:32:32;;;;;;;3.85;2.67;;;;;;;;;;5046246;28;20984;-74
2023/08/03 06:35:00;;;;;;;3.70;2.50;;;;;;;;;;5053253;28;20045;-74
2023/08/03 06:37:27;;;;;;;4.30;3.08;;;;;;;;;;5051052;28;20041;-73
2023/08/03 06:39:54;;;;;;;4.40;2.50;;;;;;;;;;5055670;28;20035;-73
2023/08/03 06:42:20;;;;;;;4.75;3.08;;;;;;;;;;5049521;28;20040;-72
2023/08/03 06:44:46;;;;;;;3.58;2.70;;;;;;;;;;5056769;28;20028;-73
2023/08/03 06:47:12;;;;;;;6.82;2.42;;;;;;;;;;5052416;28;20037;-72
2023/08/03 06:49:38;;;;;;;4.88;2.88;;;;;;;;;;5052528;28;20031;-73
2023/08/03 06:52:05;;;;;;;3.10;2.42;;;;;;;;;;5053384;28;20035;-73
2023/08/03 06:54:31;;;;;;;4.78;3.05;;;;;;;;;;5053974;28;20025;-73
2023/08/03 06:56:57;;;;;;;5.15;2.58;;;;;;;;;;5053895;28;20528;-72
2023/08/03 06:59:23;;;;;;;5.22;2.45;;;;;;;;;;5053930;28;20033;-72
2023/08/03 07:01:50;;;;;;;4.53;2.47;;;;;;;;;;5055456;28;20490;-72
2023/08/03 07:04:16;;;;;;;4.05;2.33;;;;;;;;;;5051853;28;20055;-72
2023/08/03 07:06:46;;;;;;;3.08;2.20;;;;;;;;;;5052422;28;20040;-73
2023/08/03 07:09:12;;;;;;;6.03;2.80;;;;;;;;;;5055256;28;20428;-73
2023/08/03 07:11:38;;;;;;;4.07;2.40;;;;;;;;;;5054707;28;20031;-72
2023/08/03 07:14:04;;;;;;;4.78;3.13;;;;;;;;;;5055989;28;20020;-73
2023/08/03 07:16:30;;;;;;;5.43;2.67;;;;;;;;;;5049281;28;20059;-72
2023/08/03 07:18:57;;;;;;;4.32;2.60;;;;;;;;;;5050485;28;20052;-73
2023/08/03 07:21:23;;;;;;;4.68;2.58;;;;;;;;;;5049438;28;20744;-73
2023/08/03 07:23:49;;;;;;;4.80;2.40;;;;;;;;;;5040069;28;20029;-73
2023/08/03 07:26:15;;;;;;;5.18;2.75;;;;;;;;;;5052906;28;21917;-73
2023/08/03 07:28:42;;;;;;;4.43;2.30;;;;;;;;;;5053893;28;20035;-72
2023/08/03 07:31:17;;;;;;;5.10;2.20;;;;;;;;;;5053224;28;20506;-73
2023/08/03 07:33:43;;;;;;;;;;;;;;;;;;5053263;28;20093;-73
2023/08/03 07:36:15;;;;;;;6.40;2.53;;;;;;;;;;5046192;28;20114;-73
2023/08/03 07:38:41;;;;;;;6.10;2.50;;;;;;;;;;5053778;28;20153;-72
2023/08/03 07:41:07;;;;;;;4.55;2.58;;;;;;;;;;5049740;28;20377;-73
2023/08/03 07:43:33;;;;;;;4.45;2.35;;;;;;;;;;5052496;28;20075;-72
2023/08/03 07:46:01;;;;;;;7.88;2.78;;;;;;;;;;5051655;28;20575;-72
2023/08/03 07:48:27;;;;;;;3.95;2.67;;;;;;;;;;5054703;28;20775;-75
2023/08/03 07:50:54;;;;;;;6.47;2.83;;;;;;;;;;5054459;28;20077;-73
2023/08/03 07:53:20;;;;;;;5.75;3.05;;;;;;;;;;5056058;28;20533;-74
2023/08/03 07:55:46;;;;;;;3.08;2.45;;;;;;;;;;5055325;28;20050;-75
2023/08/03 07:58:12;;;;;;;5.32;2.63;;;;;;;;;;5050945;28;20044;-73
2023/08/03 08:00:38;;;;;;;2.60;2.25;;;;;;;;;;5055118;28;20033;-74
2023/08/03 08:03:05;;;;;;;3.95;2.35;;;;;;;;;;5056857;28;20032;-74
2023/08/03 08:05:31;;;;;;;3.90;2.20;;;;;;;;;;5053285;28;20025;-74
2023/08/03 08:07:57;;;;;;;2.53;2.00;;;;;;;;;;5050372;28;20112;-74
2023/08/03 08:10:23;;;;;;;3.78;2.17;;;;;;;;;;5053202;28;20374;-74
2023/08/03 08:12:52;;;;;;;3.25;1.85;;;;;;;;;;5052495;28;20396;-73
2023/08/03 08:15:18;;;;;;;3.42;2.00;;;;;;;;;;5056067;28;20035;-74
2023/08/03 08:17:44;;;;;;;3.17;2.10;;;;;;;;;;5057276;28;20484;-73
2023/08/03 08:20:10;;;;;;;2.30;2.05;;;;;;;;;;5054139;28;20054;-74
2023/08/03 08:22:39;;;;;;;4.22;3.08;;;;;;;;;;5056233;28;20052;-73
2023/08/03 08:25:05;;;;;;;2.60;1.98;;;;;;;;;;5055811;28;20063;-75
2023/08/03 08:27:31;;;;;;;4.60;1.90;;;;;;;;;;5052707;28;20032;-75
2023/08/03 08:30:00;;;;;;;5.60;2.10;;;;;;;;;;5049326;28;20694;-75
2023/08/03 08:32:26;;;;;;;3.45;2.20;;;;;;;;;;5052271;28;20173;-77
2023/08/03 08:34:52;;;;;;;3.45;2.42;;;;;;;;;;5053151;28;20048;-76
2023/08/03 08:37:18;;;;;;;3.40;2.25;;;;;;;;;;5052018;28;20036;-75
2023/08/03 08:39:47;;;;;;;3.63;2.30;;;;;;;;;;5056583;28;20056;-75
2023/08/03 08:42:14;;;;;;;2.85;1.90;;;;;;;;;;5055444;28;20032;-75
2023/08/03 08:44:41;;;;;;;2.33;1.90;;;;;;;;;;5055136;28;20056;-75
2023/08/03 08:47:07;;;;;;;3.22;2.10;;;;;;;;;;5053948;28;20499;-75
2023/08/03 08:49:33;;;;;;;3.00;1.90;;;;;;;;;;5069869;28;21520;-74
2023/08/03 08:52:01;;;;;;;3.13;1.75;;;;;;;;;;5054681;28;20549;-75
2023/08/03 08:54:33;;;;;;;2.53;1.90;;;;;;;;;;5047044;28;20025;-74
2023/08/03 08:56:59;;;;;;;5.43;2.20;;;;;;;;;;5055435;28;20043;-73
2023/08/03 08:59:27;;;;;;;3.15;2.30;;;;;;;;;;5069477;28;20101;-74
2023/08/03 09:01:54;;;;;;;2.00;1.80;;;;;;;;;;5055219;28;20029;-73
2023/08/03 09:04:30;;;;;;;3.45;1.83;;;;;;;;;;5051590;28;20078;-73
2023/08/03 09:06:57;;;;;;;3.97;1.98;;;;;;;;;;5050974;28;20086;-74
2023/08/03 09:09:28;;;;;;;3.53;2.00;;;;;;;;;;5049536;28;20049;-73
2023/08/03 09:11:57;;;;;;;3.85;1.92;;;;;;;;;;5049547;28;20037;-73
2023/08/03 09:14:23;;;;;;;1.70;1.60;;;;;;;;;;5048633;28;20515;-74
2023/08/03 09:16:49;;;;;;;2.10;1.90;;;;;;;;;;5053097;28;20567;-74
2023/08/03 09:19:15;;;;;;;4.22;1.73;;;;;;;;;;5050270;28;20029;-73
2023/08/03 09:21:56;;;;;;;2.00;1.45;;;;;;;;;;5054869;28;20111;-75
2023/08/03 09:24:23;;;;;;;1.80;1.70;;;;;;;;;;5055002;28;20039;-74
2023/08/03 09:26:49;;;;;;;2.55;1.75;;;;;;;;;;5055636;28;20082;-74
2023/08/03 09:29:18;;;;;;;4.75;2.25;;;;;;;;;;5052267;28;20025;-73
2023/08/03 09:31:46;;;;;;;2.05;1.52;;;;;;;;;;5057692;28;20056;-74
2023/08/03 09:34:12;;;;;;;5.57;1.70;;;;;;;;;;5056565;28;20040;-74
2023/08/03 09:36:47;;;;;;;4.80;1.70;;;;;;;;;;5052084;28;20266;-72
2023/08/03 09:39:13;;;;;;;2.50;1.70;;;;;;;;;;5058431;28;20025;-74
2023/08/03 09:41:40;;;;;;;3.22;1.60;;;;;;;;;;5069969;28;20039;-74
2023/08/03 09:44:07;;;;;;;4.13;1.90;;;;;;;;;;5054158;28;20024;-74
2023/08/03 09:46:33;;;;;;;3.03;1.70;;;;;;;;;;5055215;28;20086;-74
2023/08/03 09:49:00;;;;;;;1.70;1.48;;;;;;;;;;5059841;28;20086;-74
2023/08/03 09:51:30;;;;;;;2.65;1.60;;;;;;;;;;5057676;28;20383;-74
2023/08/03 09:53:59;;;;;;;2.08;1.50;;;;;;;;;;5059408;28;20492;-74
2023/08/03 09:56:31;;;;;;;2.50;1.90;;;;;;;;;;5056586;28;20025;-74
2023/08/03 09:58:59;;;;;;;1.67;1.58;;;;;;;;;;5055901;28;20043;-74
2023/08/03 10:01:26;;;;;;;1.50;1.40;;;;;;;;;;5060448;28;20029;-74
2023/08/03 10:03:58;;;;;;;1.90;1.60;;;;;;;;;;5057298;28;20024;-75
2023/08/03 10:06:28;;;;;;;2.08;1.70;;;;;;;;;;5057875;28;20092;-73
2023/08/03 10:08:56;;;;;;;2.05;1.75;;;;;;;;;;5057091;28;20456;-75
2023/08/03 10:11:27;;;;;;;2.10;1.75;;;;;;;;;;5058584;28;20103;-71
2023/08/03 10:13:55;;;;;;;2.35;1.67;;;;;;;;;;5060064;28;20024;-71
2023/08/03 10:16:22;;;;;;;2.15;1.60;;;;;;;;;;5056310;28;20038;-72
2023/08/03 10:18:48;;;;;;;2.38;1.77;;;;;;;;;;5069163;28;20042;-71
2023/08/03 10:21:14;;;;;;;2.28;1.70;;;;;;;;;;5059466;28;20561;-71
2023/08/03 10:24:00;;;;;;;2.83;1.80;;;;;;;;;;5060804;28;20070;-71
2023/08/03 10:26:26;;;;;;;3.15;1.70;;;;;;;;;;5058283;28;20066;-72
2023/08/03 10:28:52;;;;;;;1.90;1.70;;;;;;;;;;5058457;28;20034;-71
2023/08/03 10:31:19;;;;;;;2.90;1.60;;;;;;;;;;5062807;28;20028;-71
2023/08/03 10:33:51;;;;;;;2.47;1.63;;;;;;;;;;5060546;28;20029;-71
2023/08/03 10:36:29;;;;;;;1.45;1.35;;;;;;;;;;5059382;28;20050;-71
2023/08/03 10:38:56;;;;;;;3.28;1.77;;;;;;;;;;5058405;28;20025;-71
2023/08/03 10:41:23;;;;;;;2.00;1.80;;;;;;;;;;5058473;28;20035;-71
2023/08/03 10:44:11;;;;;;;4.28;1.70;;;;;;;;;;5054253;28;20422;-71
2023/08/03 10:46:48;;;;;;;2.50;1.85;;;;;;;;;;5048939;28;20115;-71
2023/08/03 10:49:22;;;;;;;3.15;1.63;;;;;;;;;;5071215;28;20041;-71
2023/08/03 10:51:48;;;;;;;2.42;1.60;;;;;;;;;;5057777;28;20024;-72
2023/08/03 10:54:17;;;;;;;2.22;1.60;;;;;;;;;;5055234;28;20117;-71
2023/08/03 10:57:02;;;;;;;3.33;1.80;;;;;;;;;;5062654;28;20081;-71
2023/08/03 10:59:28;;;;;;;3.07;1.70;;;;;;;;;;5053274;28;20032;-71
2023/08/03 11:01:54;;;;;;;2.45;1.70;;;;;;;;;;5050133;28;20039;-76
2023/08/03 11:04:24;;;;;;;4.60;2.10;;;;;;;;;;5049433;28;20039;-71
2023/08/03 11:06:54;;;;;;;3.92;1.83;;;;;;;;;;5053415;28;20025;-70
2023/08/03 11:09:20;;;;;;;1.83;1.70;;;;;;;;;;5057104;28;20024;-67
2023/08/03 11:11:47;;;;;;;2.13;1.65;;;;;;;;;;5056075;28;20118;-70
2023/08/03 11:14:15;;;;;;;2.08;1.77;;;;;;;;;;5053766;28;20037;-71
2023/08/03 11:16:41;;;;;;;1.60;1.50;;;;;;;;;;5056086;28;20079;-71
2023/08/03 11:19:07;;;;;;;2.28;1.65;;;;;;;;;;5051754;28;21798;-71
2023/08/03 11:21:33;;;;;;;2.10;1.65;;;;;;;;;;5050412;28;20932;-71
2023/08/03 11:24:00;;;;;;;2.00;1.60;;;;;;;;;;5055253;28;20035;-71
2023/08/03 11:26:26;;;;;;;2.20;1.70;;;;;;;;;;5071488;28;20020;-71
2023/08/03 11:28:53;;;;;;;3.50;2.38;;;;;;;;;;5066680;28;20025;-71
2023/08/03 11:31:20;;;;;;;2.10;1.60;;;;;;;;;;5065622;28;20455;-71
2023/08/03 11:33:53;;;;;;;3.20;2.45;;;;;;;;;;5052994;28;20041;-71
2023/08/03 11:36:20;;;;;;;2.63;1.90;;;;;;;;;;5055088;28;20076;-71
2023/08/03 11:38:47;;;;;;;2.28;2.05;;;;;;;;;;5050807;28;20033;-70
2023/08/03 11:41:13;;;;;;;2.47;1.67;;;;;;;;;;5052761;28;20047;-71
2023/08/03 11:43:40;;;;;;;2.97;1.83;;;;;;;;;;5068393;28;20052;-71
2023/08/03 11:46:06;;;;;;;3.60;1.73;;;;;;;;;;5053703;28;20424;-71
2023/08/03 11:48:33;;;;;;;2.50;1.90;;;;;;;;;;5055104;28;20732;-72
2023/08/03 11:50:59;;;;;;;1.70;1.50;;;;;;;;;;5054625;28;20028;-71
2023/08/03 11:53:25;;;;;;;2.03;1.80;;;;;;;;;;5051198;28;20024;-71
2023/08/03 11:55:51;;;;;;;1.90;1.70;;;;;;;;;;5052825;28;20098;-71
2023/08/03 11:58:22;;;;;;;2.60;1.65;;;;;;;;;;5068217;28;20495;-72
2023/08/03 12:00:49;;;;;;;2.10;1.80;;;;;;;;;;5050199;28;20032;-71
2023/08/03 12:03:31;;;;;;;3.97;1.90;;;;;;;;;;5054938;28;20060;-71
2023/08/03 12:06:00;;;;;;;2.90;1.70;;;;;;;;;;5047535;28;20028;-71
2023/08/03 12:08:27;;;;;;;2.25;1.63;;;;;;;;;;5053958;28;20403;-72
2023/08/03 12:10:57;;;;;;;3.40;1.70;;;;;;;;;;5047265;28;20066;-71
2023/08/03 12:13:32;;;;;;;3.00;1.80;;;;;;;;;;5068911;28;20052;-71
2023/08/03 12:15:58;;;;;;;1.95;1.73;;;;;;;;;;5060095;28;20052;-75
2023/08/03 12:18:26;;;;;;;2.00;1.70;;;;;;;;;;5061982;28;20029;-74
2023/08/03 12:20:53;;;;;;;1.92;1.50;;;;;;;;;;5067477;28;20514;-75
2023/08/03 12:23:19;;;;;;;1.60;1.50;;;;;;;;;;5062804;28;20037;-73
2023/08/03 12:25:46;;;;;;;2.58;1.63;;;;;;;;;;5062759;28;20066;-74
2023/08/03 12:28:12;;;;;;;1.88;1.73;;;;;;;;;;5053340;28;20567;-73
2023/08/03 12:30:39;;;;;;;2.05;1.80;;;;;;;;;;5047116;28;20029;-71
2023/08/03 12:33:09;;;;;;;2.53;1.77;;;;;;;;;;5053758;28;20155;-71
2023/08/03 12:35:38;;;;;;;2.47;2.05;;;;;;;;;;5046972;28;20109;-71
2023/08/03 12:38:04;;;;;;;3.53;2.20;;;;;;;;;;5070015;28;20078;-71
2023/08/03 12:40:33;;;;;;;3.17;1.70;;;;;;;;;;5064853;28;20028;-71
2023/08/03 12:42:59;;;;;;;2.60;1.95;;;;;;;;;;5048644;28;20094;-71
2023/08/03 12:45:28;;;;;;;2.45;1.80;;;;;;;;;;5051382;28;20033;-71
2023/08/03 12:47:54;;;;;;;1.98;1.77;;;;;;;;;;5048730;28;20258;-71
2023/08/03 12:50:21;;;;;;;4.00;1.90;;;;;;;;;;5052359;28;20056;-74
2023/08/03 12:52:47;;;;;;;2.22;1.92;;;;;;;;;;5046318;28;20571;-73
2023/08/03 12:55:13;;;;;;;3.55;1.77;;;;;;;;;;5053909;28;20472;-73
2023/08/03 12:57:39;;;;;;;2.50;1.80;;;;;;;;;;5046377;28;20032;-73
2023/08/03 13:00:06;;;;;;;3.92;1.83;;;;;;;;;;5050205;28;20055;-72
2023/08/03 13:02:32;;;;;;;2.15;1.70;;;;;;;;;;5051757;28;20115;-72
2023/08/03 13:04:58;;;;;;;2.00;1.73;;;;;;;;;;5048680;28;20028;-73
2023/08/03 13:07:24;;;;;;;2.45;1.85;;;;;;;;;;5049683;28;20024;-73
2023/08/03 13:09:50;;;;;;;2.30;1.90;;;;;;;;;;5052498;28;20028;-73
2023/08/03 13:12:17;;;;;;;2.70;2.22;;;;;;;;;;5054517;28;20040;-72
2023/08/03 13:14:43;;;;;;;5.15;1.90;;;;;;;;;;5050746;28;20027;-72
2023/08/03 13:17:09;;;;;;;3.65;2.25;;;;;;;;;;5050710;28;20028;-73
2023/08/03 13:19:35;;;;;;;3.40;2.17;;;;;;;;;;5050858;28;20491;-72
2023/08/03 13:22:01;;;;;;;2.25;1.73;;;;;;;;;;5052734;28;20032;-73
2023/08/03 13:24:27;;;;;;;2.30;1.70;;;;;;;;;;5060169;28;20061;-71
2023/08/03 13:27:25;;;;;;;2.28;2.00;;;;;;;;;;5068777;28;20033;-73
2023/08/03 13:29:52;;;;;;;3.55;1.85;;;;;;;;;;5047023;28;20040;-73
2023/08/03 13:32:18;;;;;;;2.97;2.00;;;;;;;;;;5054661;28;20395;-73
2023/08/03 13:34:44;;;;;;;1.65;1.55;;;;;;;;;;5054539;28;20427;-73
2023/08/03 13:37:10;;;;;;;2.05;1.70;;;;;;;;;;5049976;28;20032;-73
2023/08/03 13:39:37;;;;;;;3.22;2.05;;;;;;;;;;5056075;28;20033;-73
2023/08/03 13:42:03;;;;;;;2.92;1.75;;;;;;;;;;5055594;28;20396;-73
2023/08/03 13:44:29;;;;;;;2.78;1.92;;;;;;;;;;5056612;28;20658;-72
2023/08/03 13:46:56;;;;;;;3.92;2.25;;;;;;;;;;5058340;28;20448;-73
2023/08/03 13:49:22;;;;;;;4.47;2.03;;;;;;;;;;5052242;28;20063;-73
2023/08/03 13:51:48;;;;;;;2.85;2.00;;;;;;;;;;5052544;28;20033;-73
2023/08/03 13:54:14;;;;;;;3.55;1.80;;;;;;;;;;5055122;28;20041;-73
2023/08/03 13:56:40;;;;;;;2.58;1.85;;;;;;;;;;5053440;28;20090;-73
2023/08/03 13:59:06;;;;;;;2.20;2.00;;;;;;;;;;5051580;28;20085;-73
2023/08/03 14:01:39;;;;;;;3.72;2.03;;;;;;;;;;5053538;28;20031;-73
2023/08/03 14:04:05;;;;;;;2.95;2.00;;;;;;;;;;5052167;28;20093;-73
2023/08/03 14:06:33;;;;;;;2.10;1.83;;;;;;;;;;5057259;28;20182;-73
2023/08/03 14:08:59;;;;;;;2.10;1.90;;;;;;;;;;5053271;28;21016;-73
2023/08/03 14:11:26;;;;;;;2.05;1.85;;;;;;;;;;5051457;28;20111;-72
2023/08/03 14:13:53;;;;;;;3.53;2.00;;;;;;;;;;5055772;28;20064;-73
2023/08/03 14:16:19;;;;;;;1.70;1.60;;;;;;;;;;5058635;28;20040;-73
2023/08/03 14:18:46;;;;;;;5.13;1.95;;;;;;;;;;5049572;28;20067;-72
2023/08/03 14:21:12;;;;;;;3.00;2.67;;;;;;;;;;5049450;28;20048;-72
2023/08/03 14:23:38;;;;;;;2.95;2.00;;;;;;;;;;5055163;28;20110;-73
2023/08/03 14:26:04;;;;;;;2.00;1.77;;;;;;;;;;5052867;28;20033;-73
2023/08/03 14:28:32;;;;;;;2.30;2.00;;;;;;;;;;5054788;28;20078;-74
2023/08/03 14:31:00;;;;;;;2.40;1.83;;;;;;;;;;5040947;28;20176;-72
2023/08/03 14:33:27;;;;;;;2.40;1.83;;;;;;;;;;5070531;28;20052;-71
2023/08/03 14:35:53;;;;;;;3.08;2.78;;;;;;;;;;5068519;28;20043;-72
2023/08/03 14:38:19;;;;;;;2.03;1.83;;;;;;;;;;5050038;28;20028;-72
2023/08/03 14:40:45;;;;;;;2.20;1.88;;;;;;;;;;5054790;28;20039;-73
2023/08/03 14:43:11;;;;;;;4.07;2.17;;;;;;;;;;5050452;28;20032;-72